KAL8284 KORD-CYYZ
Flight info
| Callsign | KAL8284 |
|---|---|
| Flight time | 1h 1m |
| Altitude | 35000 |
| Route | EBAKE DCT WISMO DCT POSTS DCT PADDE DCT SVM DCT QWERI NUBER6 |
| Aircraft | B77L/H-SDE1E2E3FGHIJ2J3J4J5M1RWXY/LB1D1 |
Departure
| Time | 2026-05-05 22:44 |
|---|---|
| Airport | Chicago O'Hare International Airport (KORD) |
Arrival
| Time | 2026-05-05 23:45 |
|---|---|
| Airport | Toronto Pearson International Airport (CYYZ) |
| Time | Latitude | Longitude | Altitude | Speed | Heading |
|---|---|---|---|---|---|
| 2026-05-05 22:16 | 41.99407 | -87.89410 | 673 ft | 0 kts | 180° |
| 2026-05-05 22:26 | 41.99419 | -87.89410 | 673 ft | 4 kts | 182° |
| 2026-05-05 22:27 | 41.99446 | -87.89407 | 671 ft | 4 kts | 188° |
| 2026-05-05 22:27 | 41.99472 | -87.89400 | 671 ft | 4 kts | 198° |
| 2026-05-05 22:27 | 41.99496 | -87.89386 | 671 ft | 4 kts | 220° |
| 2026-05-05 22:27 | 41.99508 | -87.89364 | 671 ft | 1 kts | 270° |
| 2026-05-05 22:28 | 41.99508 | -87.89363 | 671 ft | 2 kts | 270° |
| 2026-05-05 22:35 | 41.99508 | -87.89402 | 672 ft | 10 kts | 270° |
| 2026-05-05 22:35 | 41.99509 | -87.89512 | 674 ft | 11 kts | 270° |
| 2026-05-05 22:35 | 41.99509 | -87.89612 | 674 ft | 10 kts | 270° |
| 2026-05-05 22:35 | 41.99501 | -87.89704 | 674 ft | 9 kts | 248° |
| 2026-05-05 22:36 | 41.99454 | -87.89775 | 674 ft | 11 kts | 221° |
| 2026-05-05 22:36 | 41.99394 | -87.89842 | 674 ft | 11 kts | 219° |
| 2026-05-05 22:36 | 41.99336 | -87.89906 | 674 ft | 11 kts | 220° |
| 2026-05-05 22:36 | 41.99279 | -87.89971 | 673 ft | 11 kts | 220° |
| 2026-05-05 22:37 | 41.99211 | -87.90034 | 673 ft | 12 kts | 197° |
| 2026-05-05 22:37 | 41.99123 | -87.90040 | 673 ft | 13 kts | 180° |
| 2026-05-05 22:37 | 41.99030 | -87.90039 | 673 ft | 13 kts | 173° |
| 2026-05-05 22:37 | 41.98994 | -87.89950 | 673 ft | 11 kts | 90° |
| 2026-05-05 22:38 | 41.98994 | -87.89845 | 673 ft | 11 kts | 90° |
| 2026-05-05 22:38 | 41.98994 | -87.89742 | 673 ft | 11 kts | 90° |
| 2026-05-05 22:38 | 41.98994 | -87.89640 | 673 ft | 11 kts | 90° |
| 2026-05-05 22:38 | 41.98994 | -87.89538 | 673 ft | 13 kts | 90° |
| 2026-05-05 22:39 | 41.98994 | -87.89380 | 673 ft | 19 kts | 90° |
| 2026-05-05 22:39 | 41.98994 | -87.89209 | 673 ft | 17 kts | 90° |
| 2026-05-05 22:39 | 41.98993 | -87.89087 | 674 ft | 11 kts | 95° |
| 2026-05-05 22:39 | 41.98948 | -87.89039 | 674 ft | 7 kts | 180° |
| 2026-05-05 22:40 | 41.98940 | -87.89040 | 674 ft | 0 kts | 181° |
| 2026-05-05 22:41 | 41.98901 | -87.89041 | 675 ft | 10 kts | 182° |
| 2026-05-05 22:42 | 41.98850 | -87.89044 | 675 ft | 6 kts | 182° |
| 2026-05-05 22:42 | 41.98838 | -87.89054 | 673 ft | 0 kts | 229° |
| 2026-05-05 22:42 | 41.98832 | -87.89095 | 675 ft | 12 kts | 264° |
| 2026-05-05 22:42 | 41.98832 | -87.89112 | 675 ft | 0 kts | 268° |
| 2026-05-05 22:43 | 41.98830 | -87.89250 | 673 ft | 42 kts | 270° |
| 2026-05-05 22:43 | 41.98831 | -87.89984 | 673 ft | 112 kts | 270° |
| 2026-05-05 22:43 | 41.98831 | -87.91306 | 674 ft | 167 kts | 269° |
| 2026-05-05 22:43 | 41.98820 | -87.92905 | 1203 ft | 165 kts | 271° |
| 2026-05-05 22:44 | 41.98800 | -87.94475 | 1839 ft | 173 kts | 270° |
| 2026-05-05 22:44 | 41.98780 | -87.96091 | 2466 ft | 175 kts | 271° |
| 2026-05-05 22:44 | 41.98797 | -87.97812 | 2762 ft | 195 kts | 281° |
| 2026-05-05 22:44 | 41.99509 | -87.99392 | 2901 ft | 207 kts | 324° |
| 2026-05-05 22:45 | 42.00883 | -87.99985 | 3098 ft | 215 kts | 358° |
| 2026-05-05 22:45 | 42.02331 | -87.99455 | 3262 ft | 228 kts | 31° |
| 2026-05-05 22:45 | 42.03343 | -87.97811 | 3539 ft | 234 kts | 65° |
| 2026-05-05 22:45 | 42.03921 | -87.95745 | 3725 ft | 237 kts | 68° |
| 2026-05-05 22:46 | 42.04484 | -87.93642 | 3974 ft | 242 kts | 68° |
| 2026-05-05 22:46 | 42.05062 | -87.91480 | 4107 ft | 251 kts | 68° |
| 2026-05-05 22:46 | 42.05655 | -87.89256 | 4237 ft | 261 kts | 68° |
| 2026-05-05 22:46 | 42.06282 | -87.86907 | 4501 ft | 271 kts | 68° |
| 2026-05-05 22:47 | 42.06929 | -87.84492 | 5285 ft | 276 kts | 68° |
| 2026-05-05 22:47 | 42.07589 | -87.82036 | 6053 ft | 283 kts | 68° |
| 2026-05-05 22:47 | 42.08260 | -87.79549 | 6840 ft | 286 kts | 68° |
| 2026-05-05 22:47 | 42.08955 | -87.76979 | 7466 ft | 297 kts | 69° |
| 2026-05-05 22:48 | 42.09671 | -87.74333 | 8104 ft | 306 kts | 69° |
| 2026-05-05 22:48 | 42.10409 | -87.71609 | 8777 ft | 313 kts | 69° |
| 2026-05-05 22:48 | 42.11167 | -87.68807 | 9378 ft | 324 kts | 69° |
| 2026-05-05 22:48 | 42.11947 | -87.65925 | 10014 ft | 331 kts | 69° |
| 2026-05-05 22:49 | 42.12747 | -87.62966 | 10532 ft | 345 kts | 70° |
| 2026-05-05 22:49 | 42.13599 | -87.59814 | 10732 ft | 371 kts | 70° |
| 2026-05-05 22:49 | 42.14512 | -87.56435 | 10946 ft | 396 kts | 70° |
| 2026-05-05 22:49 | 42.15458 | -87.52923 | 11510 ft | 409 kts | 70° |
| 2026-05-05 22:50 | 42.16439 | -87.49280 | 12292 ft | 417 kts | 70° |
| 2026-05-05 22:50 | 42.17434 | -87.45579 | 13203 ft | 424 kts | 70° |
| 2026-05-05 22:50 | 42.18446 | -87.41806 | 13973 ft | 432 kts | 70° |
| 2026-05-05 22:50 | 42.19475 | -87.37968 | 14751 ft | 438 kts | 69° |
| 2026-05-05 22:51 | 42.20515 | -87.34081 | 15569 ft | 443 kts | 69° |
| 2026-05-05 22:51 | 42.21568 | -87.30142 | 16331 ft | 448 kts | 69° |
| 2026-05-05 22:51 | 42.22632 | -87.26153 | 17070 ft | 455 kts | 69° |
| 2026-05-05 22:51 | 42.23708 | -87.22110 | 17767 ft | 462 kts | 69° |
| 2026-05-05 22:52 | 42.24805 | -87.17987 | 18441 ft | 469 kts | 69° |
| 2026-05-05 22:52 | 42.25913 | -87.13816 | 19067 ft | 475 kts | 69° |
| 2026-05-05 22:52 | 42.26977 | -87.09618 | 19706 ft | 481 kts | 73° |
| 2026-05-05 22:52 | 42.27766 | -87.05212 | 20325 ft | 486 kts | 80° |
| 2026-05-05 22:53 | 42.28238 | -87.00663 | 20970 ft | 490 kts | 88° |
| 2026-05-05 22:53 | 42.28430 | -86.96058 | 21603 ft | 494 kts | 90° |
| 2026-05-05 22:53 | 42.28588 | -86.91409 | 22186 ft | 501 kts | 90° |
| 2026-05-05 22:53 | 42.28746 | -86.86660 | 22747 ft | 507 kts | 90° |
| 2026-05-05 22:54 | 42.28914 | -86.81878 | 23375 ft | 512 kts | 90° |
| 2026-05-05 22:54 | 42.29095 | -86.77034 | 23916 ft | 517 kts | 89° |
| 2026-05-05 22:54 | 42.29284 | -86.72163 | 24449 ft | 521 kts | 89° |
| 2026-05-05 22:54 | 42.29475 | -86.67318 | 24977 ft | 525 kts | 89° |
| 2026-05-05 22:55 | 42.29669 | -86.62382 | 25496 ft | 529 kts | 89° |
| 2026-05-05 22:55 | 42.29862 | -86.57436 | 25988 ft | 534 kts | 89° |
| 2026-05-05 22:55 | 42.30055 | -86.52409 | 26468 ft | 538 kts | 89° |
| 2026-05-05 22:55 | 42.30246 | -86.47332 | 26954 ft | 543 kts | 89° |
| 2026-05-05 22:56 | 42.30437 | -86.42206 | 27452 ft | 547 kts | 89° |
| 2026-05-05 22:56 | 42.30626 | -86.37057 | 27928 ft | 551 kts | 89° |
| 2026-05-05 22:56 | 42.30815 | -86.31853 | 28399 ft | 555 kts | 89° |
| 2026-05-05 22:56 | 42.31002 | -86.26641 | 28863 ft | 559 kts | 89° |
| 2026-05-05 22:57 | 42.31186 | -86.21430 | 29324 ft | 563 kts | 90° |
| 2026-05-05 22:57 | 42.31372 | -86.16128 | 29734 ft | 567 kts | 89° |
| 2026-05-05 22:57 | 42.31556 | -86.10776 | 30159 ft | 569 kts | 90° |
| 2026-05-05 22:57 | 42.31625 | -86.05415 | 30545 ft | 570 kts | 92° |
| 2026-05-05 22:58 | 42.31580 | -86.00061 | 30938 ft | 572 kts | 93° |
| 2026-05-05 22:58 | 42.31528 | -85.96494 | 31196 ft | 573 kts | 93° |
| 2026-05-05 22:58 | 42.31436 | -85.91098 | 31562 ft | 575 kts | 93° |
| 2026-05-05 22:58 | 42.31342 | -85.85681 | 31933 ft | 578 kts | 93° |
| 2026-05-05 22:59 | 42.31256 | -85.80255 | 32303 ft | 579 kts | 92° |
| 2026-05-05 22:59 | 42.31151 | -85.73046 | 32781 ft | 582 kts | 92° |
| 2026-05-05 22:59 | 42.31100 | -85.69337 | 33040 ft | 583 kts | 92° |
| 2026-05-05 22:59 | 42.31025 | -85.63841 | 33401 ft | 585 kts | 91° |
| 2026-05-05 23:00 | 42.30868 | -85.52893 | 34042 ft | 589 kts | 91° |
| 2026-05-05 23:00 | 42.30783 | -85.47352 | 34377 ft | 589 kts | 91° |
| 2026-05-05 23:00 | 42.30693 | -85.41800 | 34722 ft | 589 kts | 91° |
| 2026-05-05 23:01 | 42.30601 | -85.36282 | 34937 ft | 587 kts | 91° |
| 2026-05-05 23:01 | 42.30507 | -85.30742 | 34871 ft | 589 kts | 91° |
| 2026-05-05 23:01 | 42.30311 | -85.19707 | 34877 ft | 585 kts | 91° |
| 2026-05-05 23:02 | 42.30107 | -85.08776 | 34874 ft | 585 kts | 91° |
| 2026-05-05 23:02 | 42.29884 | -84.97784 | 34879 ft | 584 kts | 91° |
| 2026-05-05 23:03 | 42.29624 | -84.86923 | 34866 ft | 581 kts | 92° |
| 2026-05-05 23:03 | 42.29350 | -84.76019 | 34864 ft | 578 kts | 92° |
| 2026-05-05 23:04 | 42.29075 | -84.65207 | 34843 ft | 576 kts | 92° |
| 2026-05-05 23:04 | 42.28794 | -84.54475 | 34854 ft | 574 kts | 92° |
| 2026-05-05 23:05 | 42.29079 | -84.43712 | 34859 ft | 572 kts | 81° |
| 2026-05-05 23:05 | 42.30525 | -84.33163 | 34861 ft | 570 kts | 75° |
| 2026-05-05 23:06 | 42.32101 | -84.22725 | 34846 ft | 570 kts | 76° |
| 2026-05-05 23:06 | 42.33617 | -84.12194 | 34848 ft | 571 kts | 77° |
| 2026-05-05 23:07 | 42.35087 | -84.01651 | 34843 ft | 571 kts | 77° |
| 2026-05-05 23:07 | 42.36551 | -83.91089 | 34831 ft | 571 kts | 77° |
| 2026-05-05 23:08 | 42.38008 | -83.80544 | 34846 ft | 569 kts | 77° |
| 2026-05-05 23:08 | 42.39452 | -83.70035 | 34840 ft | 567 kts | 77° |
| 2026-05-05 23:09 | 42.40891 | -83.59619 | 34838 ft | 565 kts | 76° |
| 2026-05-05 23:09 | 42.42900 | -83.49397 | 34840 ft | 560 kts | 71° |
| 2026-05-05 23:10 | 42.45091 | -83.39275 | 34829 ft | 560 kts | 71° |
| 2026-05-05 23:10 | 42.47254 | -83.29123 | 34846 ft | 560 kts | 71° |
| 2026-05-05 23:11 | 42.49356 | -83.19028 | 34831 ft | 560 kts | 72° |
| 2026-05-05 23:11 | 42.51435 | -83.08931 | 34793 ft | 550 kts | 72° |
| 2026-05-05 23:12 | 42.52445 | -83.04003 | 34708 ft | 539 kts | 72° |
| 2026-05-05 23:12 | 42.53441 | -82.99142 | 34604 ft | 530 kts | 72° |
| 2026-05-05 23:12 | 42.54420 | -82.94357 | 34353 ft | 523 kts | 72° |
| 2026-05-05 23:12 | 42.55391 | -82.89614 | 34028 ft | 520 kts | 73° |
| 2026-05-05 23:13 | 42.56349 | -82.84924 | 33650 ft | 519 kts | 73° |
| 2026-05-05 23:13 | 42.57300 | -82.80257 | 33240 ft | 517 kts | 73° |
| 2026-05-05 23:13 | 42.58251 | -82.75575 | 32826 ft | 515 kts | 73° |
| 2026-05-05 23:13 | 42.59199 | -82.70893 | 32465 ft | 512 kts | 73° |
| 2026-05-05 23:14 | 42.60138 | -82.66249 | 32139 ft | 509 kts | 73° |
| 2026-05-05 23:14 | 42.61071 | -82.61618 | 31803 ft | 505 kts | 73° |
| 2026-05-05 23:14 | 42.61995 | -82.57027 | 31460 ft | 503 kts | 73° |
| 2026-05-05 23:14 | 42.62914 | -82.52446 | 31118 ft | 500 kts | 74° |
| 2026-05-05 23:15 | 42.63824 | -82.47903 | 30868 ft | 498 kts | 74° |
| 2026-05-05 23:15 | 42.64723 | -82.43403 | 30832 ft | 493 kts | 74° |
| 2026-05-05 23:15 | 42.66499 | -82.34487 | 30823 ft | 493 kts | 75° |
| 2026-05-05 23:16 | 42.68441 | -82.25526 | 30818 ft | 495 kts | 63° |
| 2026-05-05 23:16 | 42.70213 | -82.21591 | 30840 ft | 486 kts | 48° |
| 2026-05-05 23:16 | 42.72305 | -82.17969 | 30844 ft | 487 kts | 47° |
| 2026-05-05 23:17 | 42.76461 | -82.10626 | 30850 ft | 491 kts | 49° |
| 2026-05-05 23:17 | 42.78480 | -82.06886 | 30634 ft | 490 kts | 50° |
| 2026-05-05 23:17 | 42.80444 | -82.03178 | 30219 ft | 489 kts | 52° |
| 2026-05-05 23:18 | 42.82251 | -81.99266 | 29815 ft | 488 kts | 57° |
| 2026-05-05 23:18 | 42.83907 | -81.95234 | 29366 ft | 485 kts | 59° |
| 2026-05-05 23:18 | 42.85492 | -81.91202 | 28943 ft | 481 kts | 59° |
| 2026-05-05 23:18 | 42.87030 | -81.87281 | 28556 ft | 477 kts | 59° |
| 2026-05-05 23:19 | 42.88608 | -81.83319 | 28157 ft | 473 kts | 59° |
| 2026-05-05 23:19 | 42.90192 | -81.79406 | 27747 ft | 469 kts | 59° |
| 2026-05-05 23:19 | 42.91779 | -81.75526 | 27356 ft | 465 kts | 59° |
| 2026-05-05 23:19 | 42.93357 | -81.71685 | 27003 ft | 462 kts | 59° |
| 2026-05-05 23:20 | 42.94922 | -81.67881 | 26598 ft | 459 kts | 59° |
| 2026-05-05 23:20 | 42.96478 | -81.64091 | 26198 ft | 456 kts | 59° |
| 2026-05-05 23:20 | 42.98024 | -81.60317 | 25818 ft | 454 kts | 59° |
| 2026-05-05 23:20 | 42.99560 | -81.56558 | 25437 ft | 451 kts | 60° |
| 2026-05-05 23:21 | 43.01033 | -81.52947 | 25076 ft | 449 kts | 60° |
| 2026-05-05 23:21 | 43.02578 | -81.49154 | 24694 ft | 446 kts | 60° |
| 2026-05-05 23:21 | 43.04086 | -81.45448 | 24322 ft | 444 kts | 60° |
| 2026-05-05 23:21 | 43.05579 | -81.41775 | 23955 ft | 442 kts | 60° |
| 2026-05-05 23:22 | 43.07071 | -81.38100 | 23579 ft | 440 kts | 61° |
| 2026-05-05 23:22 | 43.08538 | -81.34416 | 23159 ft | 439 kts | 62° |
| 2026-05-05 23:22 | 43.09972 | -81.30755 | 22735 ft | 436 kts | 62° |
| 2026-05-05 23:22 | 43.11399 | -81.27091 | 22342 ft | 434 kts | 63° |
| 2026-05-05 23:23 | 43.12817 | -81.23446 | 21970 ft | 432 kts | 63° |
| 2026-05-05 23:23 | 43.14204 | -81.19879 | 21605 ft | 429 kts | 63° |
| 2026-05-05 23:23 | 43.15621 | -81.16233 | 21230 ft | 427 kts | 63° |
| 2026-05-05 23:23 | 43.17014 | -81.12650 | 20857 ft | 425 kts | 63° |
| 2026-05-05 23:24 | 43.18401 | -81.09084 | 20489 ft | 423 kts | 63° |
| 2026-05-05 23:24 | 43.19779 | -81.05536 | 20125 ft | 421 kts | 63° |
| 2026-05-05 23:24 | 43.21149 | -81.02003 | 19764 ft | 420 kts | 63° |
| 2026-05-05 23:24 | 43.22526 | -80.98450 | 19392 ft | 424 kts | 63° |
| 2026-05-05 23:25 | 43.23904 | -80.94891 | 19229 ft | 418 kts | 63° |
| 2026-05-05 23:25 | 43.25252 | -80.91411 | 19235 ft | 410 kts | 63° |
| 2026-05-05 23:25 | 43.26571 | -80.88011 | 19250 ft | 410 kts | 63° |
| 2026-05-05 23:25 | 43.27938 | -80.84480 | 19281 ft | 417 kts | 63° |
| 2026-05-05 23:26 | 43.29285 | -80.80999 | 19256 ft | 420 kts | 63° |
| 2026-05-05 23:26 | 43.30653 | -80.77463 | 19253 ft | 418 kts | 63° |
| 2026-05-05 23:26 | 43.32013 | -80.73946 | 19249 ft | 416 kts | 63° |
| 2026-05-05 23:26 | 43.33371 | -80.70434 | 19251 ft | 415 kts | 63° |
| 2026-05-05 23:27 | 43.34723 | -80.66937 | 19256 ft | 414 kts | 63° |
| 2026-05-05 23:27 | 43.36073 | -80.63446 | 19250 ft | 414 kts | 63° |
| 2026-05-05 23:27 | 43.37419 | -80.59966 | 19100 ft | 408 kts | 63° |
| 2026-05-05 23:27 | 43.38747 | -80.56533 | 18639 ft | 402 kts | 63° |
| 2026-05-05 23:28 | 43.40059 | -80.53145 | 17991 ft | 400 kts | 63° |
| 2026-05-05 23:28 | 43.41378 | -80.49731 | 17471 ft | 407 kts | 63° |
| 2026-05-05 23:28 | 43.42705 | -80.46295 | 17343 ft | 405 kts | 63° |
| 2026-05-05 23:28 | 43.44020 | -80.42888 | 17275 ft | 402 kts | 63° |
| 2026-05-05 23:29 | 43.45336 | -80.39489 | 17125 ft | 399 kts | 60° |
| 2026-05-05 23:29 | 43.46967 | -80.36472 | 16736 ft | 392 kts | 39° |
| 2026-05-05 23:29 | 43.49136 | -80.34283 | 16240 ft | 383 kts | 25° |
| 2026-05-05 23:29 | 43.51428 | -80.32536 | 15829 ft | 379 kts | 21° |
| 2026-05-05 23:30 | 43.53748 | -80.30873 | 15454 ft | 374 kts | 21° |
| 2026-05-05 23:30 | 43.56054 | -80.29230 | 15090 ft | 371 kts | 20° |
| 2026-05-05 23:30 | 43.58332 | -80.27603 | 14736 ft | 367 kts | 20° |
| 2026-05-05 23:30 | 43.60584 | -80.25987 | 14394 ft | 362 kts | 20° |
| 2026-05-05 23:31 | 43.62813 | -80.24371 | 13959 ft | 363 kts | 20° |
| 2026-05-05 23:31 | 43.65054 | -80.22728 | 13432 ft | 364 kts | 20° |
| 2026-05-05 23:31 | 43.67275 | -80.21090 | 13051 ft | 360 kts | 20° |
| 2026-05-05 23:31 | 43.69462 | -80.19473 | 13005 ft | 358 kts | 20° |
| 2026-05-05 23:32 | 43.71662 | -80.17823 | 13008 ft | 363 kts | 25° |
| 2026-05-05 23:32 | 43.73557 | -80.15441 | 12955 ft | 375 kts | 52° |
| 2026-05-05 23:32 | 43.74615 | -80.12158 | 12515 ft | 374 kts | 81° |
| 2026-05-05 23:32 | 43.74636 | -80.08634 | 11895 ft | 363 kts | 102° |
| 2026-05-05 23:33 | 43.74403 | -80.05183 | 11340 ft | 357 kts | 97° |
| 2026-05-05 23:33 | 43.74347 | -80.01772 | 10838 ft | 349 kts | 94° |
| 2026-05-05 23:33 | 43.74378 | -79.98443 | 10307 ft | 343 kts | 93° |
| 2026-05-05 23:33 | 43.74439 | -79.95171 | 9715 ft | 340 kts | 92° |
| 2026-05-05 23:34 | 43.74509 | -79.91925 | 9064 ft | 336 kts | 91° |
| 2026-05-05 23:34 | 43.74578 | -79.88726 | 8562 ft | 329 kts | 91° |
| 2026-05-05 23:34 | 43.74647 | -79.85618 | 8128 ft | 319 kts | 90° |
| 2026-05-05 23:34 | 43.74711 | -79.82605 | 7741 ft | 308 kts | 90° |
| 2026-05-05 23:35 | 43.74773 | -79.79681 | 7307 ft | 300 kts | 89° |
| 2026-05-05 23:35 | 43.74830 | -79.76842 | 6821 ft | 299 kts | 89° |
| 2026-05-05 23:35 | 43.74907 | -79.74010 | 6568 ft | 290 kts | 82° |
| 2026-05-05 23:35 | 43.75538 | -79.71457 | 6429 ft | 269 kts | 52° |
| 2026-05-05 23:36 | 43.76681 | -79.69592 | 6332 ft | 249 kts | 40° |
| 2026-05-05 23:36 | 43.77885 | -79.67866 | 6118 ft | 250 kts | 40° |
| 2026-05-05 23:36 | 43.79086 | -79.66135 | 5927 ft | 246 kts | 41° |
| 2026-05-05 23:36 | 43.80241 | -79.64459 | 5804 ft | 241 kts | 41° |
| 2026-05-05 23:37 | 43.81407 | -79.62771 | 5705 ft | 242 kts | 41° |
| 2026-05-05 23:37 | 43.82559 | -79.61097 | 5568 ft | 237 kts | 41° |
| 2026-05-05 23:37 | 43.83673 | -79.59475 | 5451 ft | 227 kts | 41° |
| 2026-05-05 23:37 | 43.84761 | -79.57889 | 5182 ft | 227 kts | 42° |
| 2026-05-05 23:38 | 43.85840 | -79.56316 | 4901 ft | 223 kts | 42° |
| 2026-05-05 23:38 | 43.86863 | -79.54737 | 4573 ft | 218 kts | 53° |
| 2026-05-05 23:38 | 43.87311 | -79.52771 | 4199 ft | 216 kts | 91° |
| 2026-05-05 23:38 | 43.86874 | -79.50870 | 3887 ft | 206 kts | 128° |
| 2026-05-05 23:39 | 43.85935 | -79.49489 | 3637 ft | 192 kts | 139° |
| 2026-05-05 23:39 | 43.84962 | -79.48244 | 3328 ft | 188 kts | 139° |
| 2026-05-05 23:39 | 43.84006 | -79.47035 | 3059 ft | 180 kts | 139° |
| 2026-05-05 23:39 | 43.83025 | -79.45970 | 3005 ft | 179 kts | 158° |
| 2026-05-05 23:40 | 43.81863 | -79.45861 | 3002 ft | 164 kts | 204° |
| 2026-05-05 23:40 | 43.80992 | -79.46789 | 3014 ft | 157 kts | 226° |
| 2026-05-05 23:40 | 43.80222 | -79.47829 | 3001 ft | 154 kts | 225° |
| 2026-05-05 23:40 | 43.79488 | -79.48854 | 2998 ft | 147 kts | 226° |
| 2026-05-05 23:41 | 43.78771 | -79.49884 | 3001 ft | 150 kts | 227° |
| 2026-05-05 23:41 | 43.78049 | -79.50932 | 2996 ft | 151 kts | 227° |
| 2026-05-05 23:41 | 43.77339 | -79.51968 | 2897 ft | 155 kts | 227° |
| 2026-05-05 23:41 | 43.76627 | -79.53006 | 2687 ft | 150 kts | 227° |
| 2026-05-05 23:42 | 43.75905 | -79.54057 | 2470 ft | 147 kts | 227° |
| 2026-05-05 23:42 | 43.75199 | -79.55086 | 2282 ft | 148 kts | 227° |
| 2026-05-05 23:42 | 43.74490 | -79.56118 | 2079 ft | 147 kts | 229° |
| 2026-05-05 23:42 | 43.73788 | -79.57141 | 1880 ft | 147 kts | 228° |
| 2026-05-05 23:43 | 43.73084 | -79.58165 | 1696 ft | 148 kts | 228° |
| 2026-05-05 23:43 | 43.72382 | -79.59187 | 1470 ft | 144 kts | 228° |
| 2026-05-05 23:43 | 43.71928 | -79.59845 | 1304 ft | 142 kts | 228° |
| 2026-05-05 23:43 | 43.71245 | -79.60821 | 1053 ft | 141 kts | 229° |
| 2026-05-05 23:44 | 43.70571 | -79.61812 | 922 ft | 142 kts | 230° |
| 2026-05-05 23:44 | 43.69887 | -79.62809 | 751 ft | 144 kts | 229° |
| 2026-05-05 23:44 | 43.69198 | -79.63810 | 590 ft | 143 kts | 230° |
| 2026-05-05 23:44 | 43.68559 | -79.64756 | 572 ft | 119 kts | 226° |
| 2026-05-05 23:45 | 43.68099 | -79.65421 | 574 ft | 76 kts | 226° |
| 2026-05-05 23:45 | 43.67836 | -79.65795 | 576 ft | 33 kts | 226° |
| 2026-05-05 23:45 | 43.67687 | -79.66014 | 576 ft | 30 kts | 227° |
| 2026-05-05 23:45 | 43.67549 | -79.66214 | 576 ft | 23 kts | 226° |
| 2026-05-05 23:46 | 43.67461 | -79.66300 | 571 ft | 15 kts | 176° |
| 2026-05-05 23:46 | 43.67374 | -79.66226 | 569 ft | 14 kts | 143° |
| 2026-05-05 23:46 | 43.67335 | -79.66129 | 573 ft | 10 kts | 78° |
| 2026-05-05 23:46 | 43.67373 | -79.66062 | 576 ft | 8 kts | 46° |
| 2026-05-05 23:47 | 43.67418 | -79.65998 | 578 ft | 16 kts | 46° |
| 2026-05-05 23:47 | 43.67512 | -79.65863 | 579 ft | 20 kts | 46° |
| 2026-05-05 23:47 | 43.67600 | -79.65734 | 578 ft | 18 kts | 46° |
| 2026-05-05 23:47 | 43.67686 | -79.65603 | 571 ft | 19 kts | 47° |
| 2026-05-05 23:48 | 43.67776 | -79.65478 | 575 ft | 18 kts | 46° |
| 2026-05-05 23:48 | 43.67864 | -79.65339 | 573 ft | 20 kts | 51° |
| 2026-05-05 23:48 | 43.67944 | -79.65224 | 577 ft | 15 kts | 45° |
| 2026-05-05 23:48 | 43.68016 | -79.65128 | 577 ft | 10 kts | 43° |
| 2026-05-05 23:49 | 43.68056 | -79.65073 | 576 ft | 7 kts | 45° |